sensor_id;sensor_type;location;lat;lon;timestamp;P1;durP1;ratioP1;P2;durP2;ratioP2
52180;SDS011;38158;53.338;6.514;2023-10-13T00:01:57;49.95;;;25.30;;
52180;SDS011;38158;53.338;6.514;2023-10-13T00:04:28;49.08;;;23.98;;
52180;SDS011;38158;53.338;6.514;2023-10-13T00:06:56;65.43;;;26.80;;
52180;SDS011;38158;53.338;6.514;2023-10-13T00:09:25;52.60;;;25.92;;
52180;SDS011;38158;53.338;6.514;2023-10-13T00:11:57;62.35;;;25.25;;
52180;SDS011;38158;53.338;6.514;2023-10-13T00:14:23;67.38;;;26.80;;
52180;SDS011;38158;53.338;6.514;2023-10-13T00:16:59;59.35;;;26.55;;
52180;SDS011;38158;53.338;6.514;2023-10-13T00:19:41;52.53;;;26.50;;
52180;SDS011;38158;53.338;6.514;2023-10-13T00:22:11;49.08;;;24.70;;
52180;SDS011;38158;53.338;6.514;2023-10-13T00:27:20;48.33;;;25.73;;
52180;SDS011;38158;53.338;6.514;2023-10-13T00:29:56;53.45;;;27.10;;
52180;SDS011;38158;53.338;6.514;2023-10-13T00:32:42;51.50;;;25.42;;
52180;SDS011;38158;53.338;6.514;2023-10-13T00:35:09;58.25;;;27.75;;
52180;SDS011;38158;53.338;6.514;2023-10-13T00:37:49;53.88;;;26.92;;
52180;SDS011;38158;53.338;6.514;2023-10-13T00:40:18;57.20;;;27.13;;
52180;SDS011;38158;53.338;6.514;2023-10-13T00:43:07;58.35;;;27.50;;
52180;SDS011;38158;53.338;6.514;2023-10-13T00:45:46;46.42;;;25.65;;
52180;SDS011;38158;53.338;6.514;2023-10-13T00:48:39;58.47;;;26.88;;
52180;SDS011;38158;53.338;6.514;2023-10-13T00:51:17;54.65;;;27.70;;
52180;SDS011;38158;53.338;6.514;2023-10-13T00:54:04;54.47;;;26.60;;
52180;SDS011;38158;53.338;6.514;2023-10-13T00:56:40;54.00;;;27.92;;
52180;SDS011;38158;53.338;6.514;2023-10-13T00:59:29;49.25;;;26.42;;
52180;SDS011;38158;53.338;6.514;2023-10-13T01:02:06;51.45;;;27.27;;
52180;SDS011;38158;53.338;6.514;2023-10-13T01:05:07;48.60;;;27.13;;
52180;SDS011;38158;53.338;6.514;2023-10-13T01:07:35;46.33;;;25.48;;
52180;SDS011;38158;53.338;6.514;2023-10-13T01:10:02;37.63;;;24.27;;
52180;SDS011;38158;53.338;6.514;2023-10-13T01:12:29;42.50;;;24.98;;
52180;SDS011;38158;53.338;6.514;2023-10-13T01:14:56;32.67;;;20.73;;
52180;SDS011;38158;53.338;6.514;2023-10-13T01:17:22;43.40;;;24.20;;
52180;SDS011;38158;53.338;6.514;2023-10-13T01:19:49;45.72;;;26.70;;
52180;SDS011;38158;53.338;6.514;2023-10-13T01:22:14;32.65;;;21.52;;
52180;SDS011;38158;53.338;6.514;2023-10-13T01:24:40;42.67;;;23.88;;
52180;SDS011;38158;53.338;6.514;2023-10-13T01:27:06;41.25;;;24.88;;
52180;SDS011;38158;53.338;6.514;2023-10-13T01:29:45;42.58;;;23.63;;
52180;SDS011;38158;53.338;6.514;2023-10-13T01:32:29;39.42;;;24.05;;
52180;SDS011;38158;53.338;6.514;2023-10-13T01:34:54;37.55;;;23.45;;
52180;SDS011;38158;53.338;6.514;2023-10-13T01:37:21;38.80;;;21.48;;
52180;SDS011;38158;53.338;6.514;2023-10-13T01:39:47;34.00;;;20.52;;
52180;SDS011;38158;53.338;6.514;2023-10-13T01:44:44;36.42;;;21.38;;
52180;SDS011;38158;53.338;6.514;2023-10-13T01:47:10;36.42;;;22.48;;
52180;SDS011;38158;53.338;6.514;2023-10-13T01:49:37;34.65;;;22.98;;
52180;SDS011;38158;53.338;6.514;2023-10-13T01:52:12;36.75;;;21.00;;
52180;SDS011;38158;53.338;6.514;2023-10-13T01:54:45;32.20;;;21.30;;
52180;SDS011;38158;53.338;6.514;2023-10-13T01:57:14;36.50;;;21.45;;
52180;SDS011;38158;53.338;6.514;2023-10-13T01:59:51;38.10;;;23.50;;
52180;SDS011;38158;53.338;6.514;2023-10-13T02:02:17;35.67;;;20.08;;
52180;SDS011;38158;53.338;6.514;2023-10-13T02:04:54;38.67;;;22.23;;
52180;SDS011;38158;53.338;6.514;2023-10-13T02:07:25;27.10;;;16.92;;
52180;SDS011;38158;53.338;6.514;2023-10-13T02:09:59;31.63;;;19.52;;
52180;SDS011;38158;53.338;6.514;2023-10-13T02:12:29;31.77;;;19.23;;
52180;SDS011;38158;53.338;6.514;2023-10-13T02:15:07;30.35;;;18.42;;
52180;SDS011;38158;53.338;6.514;2023-10-13T02:17:38;28.77;;;17.40;;
52180;SDS011;38158;53.338;6.514;2023-10-13T02:20:07;29.92;;;18.40;;
52180;SDS011;38158;53.338;6.514;2023-10-13T02:22:39;27.23;;;15.43;;
52180;SDS011;38158;53.338;6.514;2023-10-13T02:25:14;27.77;;;18.58;;
52180;SDS011;38158;53.338;6.514;2023-10-13T02:28:03;28.10;;;17.88;;
52180;SDS011;38158;53.338;6.514;2023-10-13T02:30:41;27.50;;;18.33;;
52180;SDS011;38158;53.338;6.514;2023-10-13T02:33:14;31.80;;;18.00;;
52180;SDS011;38158;53.338;6.514;2023-10-13T02:35:41;24.65;;;17.00;;
52180;SDS011;38158;53.338;6.514;2023-10-13T02:38:08;24.60;;;17.08;;
52180;SDS011;38158;53.338;6.514;2023-10-13T02:40:38;29.58;;;16.63;;
52180;SDS011;38158;53.338;6.514;2023-10-13T02:43:04;27.30;;;13.98;;
52180;SDS011;38158;53.338;6.514;2023-10-13T02:45:31;19.73;;;12.33;;
52180;SDS011;38158;53.338;6.514;2023-10-13T02:48:00;25.58;;;15.10;;
52180;SDS011;38158;53.338;6.514;2023-10-13T02:50:42;23.75;;;13.45;;
52180;SDS011;38158;53.338;6.514;2023-10-13T02:53:10;21.77;;;11.48;;
52180;SDS011;38158;53.338;6.514;2023-10-13T02:55:59;18.27;;;11.20;;
52180;SDS011;38158;53.338;6.514;2023-10-13T02:58:31;21.60;;;12.38;;
52180;SDS011;38158;53.338;6.514;2023-10-13T03:01:07;21.80;;;13.00;;
52180;SDS011;38158;53.338;6.514;2023-10-13T03:03:45;22.80;;;11.38;;
52180;SDS011;38158;53.338;6.514;2023-10-13T03:06:15;16.48;;;11.10;;
52180;SDS011;38158;53.338;6.514;2023-10-13T03:08:42;13.55;;;9.57;;
52180;SDS011;38158;53.338;6.514;2023-10-13T03:11:11;24.55;;;13.00;;
52180;SDS011;38158;53.338;6.514;2023-10-13T03:13:39;19.20;;;11.63;;
52180;SDS011;38158;53.338;6.514;2023-10-13T03:16:15;22.02;;;11.68;;
52180;SDS011;38158;53.338;6.514;2023-10-13T03:18:42;20.23;;;11.02;;
52180;SDS011;38158;53.338;6.514;2023-10-13T03:21:18;21.33;;;13.73;;
52180;SDS011;38158;53.338;6.514;2023-10-13T03:23:54;22.30;;;11.70;;
52180;SDS011;38158;53.338;6.514;2023-10-13T03:26:21;18.95;;;12.30;;
52180;SDS011;38158;53.338;6.514;2023-10-13T03:28:46;26.00;;;13.68;;
52180;SDS011;38158;53.338;6.514;2023-10-13T03:31:18;17.83;;;12.20;;
52180;SDS011;38158;53.338;6.514;2023-10-13T03:33:44;20.55;;;13.15;;
52180;SDS011;38158;53.338;6.514;2023-10-13T03:36:12;19.17;;;12.00;;
52180;SDS011;38158;53.338;6.514;2023-10-13T03:38:58;20.52;;;12.32;;
52180;SDS011;38158;53.338;6.514;2023-10-13T03:41:24;17.48;;;11.55;;
52180;SDS011;38158;53.338;6.514;2023-10-13T03:43:55;17.10;;;11.73;;
52180;SDS011;38158;53.338;6.514;2023-10-13T03:46:38;17.00;;;11.10;;
52180;SDS011;38158;53.338;6.514;2023-10-13T03:49:06;18.88;;;13.35;;
52180;SDS011;38158;53.338;6.514;2023-10-13T03:51:38;20.40;;;13.93;;
52180;SDS011;38158;53.338;6.514;2023-10-13T03:54:04;22.50;;;14.30;;
52180;SDS011;38158;53.338;6.514;2023-10-13T03:56:32;23.30;;;15.82;;
52180;SDS011;38158;53.338;6.514;2023-10-13T03:59:04;19.83;;;12.80;;
52180;SDS011;38158;53.338;6.514;2023-10-13T04:01:32;23.13;;;15.48;;
52180;SDS011;38158;53.338;6.514;2023-10-13T04:04:16;22.10;;;15.68;;
52180;SDS011;38158;53.338;6.514;2023-10-13T04:06:59;22.45;;;16.05;;
52180;SDS011;38158;53.338;6.514;2023-10-13T04:09:37;24.45;;;16.77;;
52180;SDS011;38158;53.338;6.514;2023-10-13T04:12:07;24.85;;;16.08;;
52180;SDS011;38158;53.338;6.514;2023-10-13T04:14:51;18.98;;;14.68;;
52180;SDS011;38158;53.338;6.514;2023-10-13T04:19:59;18.92;;;13.35;;
52180;SDS011;38158;53.338;6.514;2023-10-13T04:25:16;17.92;;;13.00;;
52180;SDS011;38158;53.338;6.514;2023-10-13T04:28:00;16.42;;;12.73;;
52180;SDS011;38158;53.338;6.514;2023-10-13T04:30:56;17.17;;;11.05;;
52180;SDS011;38158;53.338;6.514;2023-10-13T04:36:01;16.05;;;11.70;;
52180;SDS011;38158;53.338;6.514;2023-10-13T04:38:28;18.88;;;11.27;;
52180;SDS011;38158;53.338;6.514;2023-10-13T04:41:00;13.57;;;11.30;;
52180;SDS011;38158;53.338;6.514;2023-10-13T04:43:27;15.90;;;11.82;;
52180;SDS011;38158;53.338;6.514;2023-10-13T04:46:16;15.77;;;11.43;;
52180;SDS011;38158;53.338;6.514;2023-10-13T04:49:00;15.30;;;11.82;;
52180;SDS011;38158;53.338;6.514;2023-10-13T04:51:35;17.48;;;11.82;;
52180;SDS011;38158;53.338;6.514;2023-10-13T04:54:20;16.15;;;11.07;;
52180;SDS011;38158;53.338;6.514;2023-10-13T04:57:02;12.05;;;9.00;;
52180;SDS011;38158;53.338;6.514;2023-10-13T04:59:46;15.90;;;11.80;;
52180;SDS011;38158;53.338;6.514;2023-10-13T05:02:31;14.35;;;10.75;;
52180;SDS011;38158;53.338;6.514;2023-10-13T05:05:04;13.57;;;9.43;;
52180;SDS011;38158;53.338;6.514;2023-10-13T05:07:42;17.60;;;11.27;;
52180;SDS011;38158;53.338;6.514;2023-10-13T05:10:28;16.35;;;12.27;;
52180;SDS011;38158;53.338;6.514;2023-10-13T05:13:29;12.75;;;9.57;;
52180;SDS011;38158;53.338;6.514;2023-10-13T05:16:14;16.10;;;10.98;;
52180;SDS011;38158;53.338;6.514;2023-10-13T05:18:58;16.17;;;11.27;;
52180;SDS011;38158;53.338;6.514;2023-10-13T05:21:43;17.98;;;10.85;;
52180;SDS011;38158;53.338;6.514;2023-10-13T05:24:28;12.90;;;9.35;;
52180;SDS011;38158;53.338;6.514;2023-10-13T05:27:12;12.55;;;9.07;;
52180;SDS011;38158;53.338;6.514;2023-10-13T05:29:57;12.75;;;9.18;;
52180;SDS011;38158;53.338;6.514;2023-10-13T05:32:41;12.63;;;8.88;;
52180;SDS011;38158;53.338;6.514;2023-10-13T05:35:26;11.40;;;7.53;;
52180;SDS011;38158;53.338;6.514;2023-10-13T05:38:10;9.95;;;7.18;;
52180;SDS011;38158;53.338;6.514;2023-10-13T05:40:58;12.50;;;6.85;;
52180;SDS011;38158;53.338;6.514;2023-10-13T05:43:45;8.10;;;5.78;;
52180;SDS011;38158;53.338;6.514;2023-10-13T05:46:29;9.10;;;5.60;;
52180;SDS011;38158;53.338;6.514;2023-10-13T05:52:15;8.85;;;6.18;;
52180;SDS011;38158;53.338;6.514;2023-10-13T05:54:45;9.25;;;6.47;;
52180;SDS011;38158;53.338;6.514;2023-10-13T05:57:29;6.93;;;5.15;;
52180;SDS011;38158;53.338;6.514;2023-10-13T06:00:10;7.78;;;4.90;;
52180;SDS011;38158;53.338;6.514;2023-10-13T06:02:55;6.25;;;4.05;;
52180;SDS011;38158;53.338;6.514;2023-10-13T06:05:59;6.82;;;4.53;;
52180;SDS011;38158;53.338;6.514;2023-10-13T06:09:03;5.93;;;3.42;;
52180;SDS011;38158;53.338;6.514;2023-10-13T06:11:47;5.18;;;3.45;;
52180;SDS011;38158;53.338;6.514;2023-10-13T06:14:32;5.60;;;3.88;;
52180;SDS011;38158;53.338;6.514;2023-10-13T06:17:16;6.00;;;3.10;;
52180;SDS011;38158;53.338;6.514;2023-10-13T06:20:01;6.03;;;3.47;;
52180;SDS011;38158;53.338;6.514;2023-10-13T06:22:48;5.25;;;3.25;;
52180;SDS011;38158;53.338;6.514;2023-10-13T06:25:33;6.03;;;4.00;;
52180;SDS011;38158;53.338;6.514;2023-10-13T06:28:18;6.30;;;3.45;;
52180;SDS011;38158;53.338;6.514;2023-10-13T06:31:03;6.18;;;3.97;;
52180;SDS011;38158;53.338;6.514;2023-10-13T06:33:31;5.97;;;4.25;;
52180;SDS011;38158;53.338;6.514;2023-10-13T06:36:02;6.53;;;3.65;;
52180;SDS011;38158;53.338;6.514;2023-10-13T06:38:29;4.57;;;3.40;;
52180;SDS011;38158;53.338;6.514;2023-10-13T06:41:01;5.00;;;3.75;;
52180;SDS011;38158;53.338;6.514;2023-10-13T06:43:33;5.65;;;3.78;;
52180;SDS011;38158;53.338;6.514;2023-10-13T06:46:08;6.00;;;3.70;;
52180;SDS011;38158;53.338;6.514;2023-10-13T06:48:45;5.40;;;2.83;;
52180;SDS011;38158;53.338;6.514;2023-10-13T06:51:11;5.70;;;2.80;;
52180;SDS011;38158;53.338;6.514;2023-10-13T06:53:43;5.50;;;3.28;;
52180;SDS011;38158;53.338;6.514;2023-10-13T06:56:12;4.72;;;3.25;;
52180;SDS011;38158;53.338;6.514;2023-10-13T06:58:47;3.60;;;2.60;;
52180;SDS011;38158;53.338;6.514;2023-10-13T07:01:13;6.55;;;3.22;;
52180;SDS011;38158;53.338;6.514;2023-10-13T07:03:47;4.50;;;2.60;;
52180;SDS011;38158;53.338;6.514;2023-10-13T07:06:18;4.60;;;2.75;;
52180;SDS011;38158;53.338;6.514;2023-10-13T07:08:47;5.07;;;3.40;;
52180;SDS011;38158;53.338;6.514;2023-10-13T07:11:24;6.65;;;3.50;;
52180;SDS011;38158;53.338;6.514;2023-10-13T07:14:00;6.15;;;3.60;;
52180;SDS011;38158;53.338;6.514;2023-10-13T07:16:35;8.05;;;2.83;;
52180;SDS011;38158;53.338;6.514;2023-10-13T07:21:50;7.97;;;3.50;;
52180;SDS011;38158;53.338;6.514;2023-10-13T07:24:23;7.32;;;3.17;;
52180;SDS011;38158;53.338;6.514;2023-10-13T07:26:59;6.97;;;2.85;;
52180;SDS011;38158;53.338;6.514;2023-10-13T07:29:30;8.20;;;3.05;;
52180;SDS011;38158;53.338;6.514;2023-10-13T07:31:58;5.68;;;3.00;;
52180;SDS011;38158;53.338;6.514;2023-10-13T07:34:28;11.30;;;3.35;;
52180;SDS011;38158;53.338;6.514;2023-10-13T07:37:01;8.13;;;3.42;;
52180;SDS011;38158;53.338;6.514;2023-10-13T07:39:28;8.63;;;3.60;;
52180;SDS011;38158;53.338;6.514;2023-10-13T07:42:04;11.77;;;4.15;;
52180;SDS011;38158;53.338;6.514;2023-10-13T07:44:30;8.25;;;3.15;;
52180;SDS011;38158;53.338;6.514;2023-10-13T07:46:58;10.13;;;3.78;;
52180;SDS011;38158;53.338;6.514;2023-10-13T07:49:58;9.30;;;3.35;;
52180;SDS011;38158;53.338;6.514;2023-10-13T07:52:17;8.70;;;4.50;;
52180;SDS011;38158;53.338;6.514;2023-10-13T07:54:46;16.15;;;4.20;;
52180;SDS011;38158;53.338;6.514;2023-10-13T07:57:17;8.57;;;3.83;;
52180;SDS011;38158;53.338;6.514;2023-10-13T07:59:43;11.38;;;4.10;;
52180;SDS011;38158;53.338;6.514;2023-10-13T08:02:18;12.50;;;4.18;;
52180;SDS011;38158;53.338;6.514;2023-10-13T08:05:19;12.50;;;4.47;;
52180;SDS011;38158;53.338;6.514;2023-10-13T08:08:04;8.20;;;3.50;;
52180;SDS011;38158;53.338;6.514;2023-10-13T08:10:39;11.57;;;4.53;;
52180;SDS011;38158;53.338;6.514;2023-10-13T08:13:07;10.05;;;4.15;;
52180;SDS011;38158;53.338;6.514;2023-10-13T08:15:39;9.95;;;4.57;;
52180;SDS011;38158;53.338;6.514;2023-10-13T08:18:18;9.00;;;4.13;;
52180;SDS011;38158;53.338;6.514;2023-10-13T08:20:58;10.10;;;4.10;;
52180;SDS011;38158;53.338;6.514;2023-10-13T08:23:31;11.32;;;4.10;;
52180;SDS011;38158;53.338;6.514;2023-10-13T08:26:24;12.18;;;4.93;;
52180;SDS011;38158;53.338;6.514;2023-10-13T08:29:02;12.10;;;4.47;;
52180;SDS011;38158;53.338;6.514;2023-10-13T08:31:44;9.63;;;3.70;;
52180;SDS011;38158;53.338;6.514;2023-10-13T08:34:30;9.15;;;3.78;;
52180;SDS011;38158;53.338;6.514;2023-10-13T08:37:11;7.18;;;4.25;;
52180;SDS011;38158;53.338;6.514;2023-10-13T08:39:53;10.60;;;4.00;;
52180;SDS011;38158;53.338;6.514;2023-10-13T08:42:36;13.18;;;4.70;;
52180;SDS011;38158;53.338;6.514;2023-10-13T08:45:08;12.95;;;4.68;;
52180;SDS011;38158;53.338;6.514;2023-10-13T08:47:53;11.80;;;3.58;;
52180;SDS011;38158;53.338;6.514;2023-10-13T08:50:32;12.50;;;5.05;;
52180;SDS011;38158;53.338;6.514;2023-10-13T08:53:33;14.95;;;4.63;;
52180;SDS011;38158;53.338;6.514;2023-10-13T08:56:09;10.70;;;4.47;;
52180;SDS011;38158;53.338;6.514;2023-10-13T08:58:38;10.82;;;4.70;;
52180;SDS011;38158;53.338;6.514;2023-10-13T09:01:23;11.48;;;4.53;;
52180;SDS011;38158;53.338;6.514;2023-10-13T09:03:59;12.43;;;3.58;;
52180;SDS011;38158;53.338;6.514;2023-10-13T09:06:58;8.93;;;4.55;;
52180;SDS011;38158;53.338;6.514;2023-10-13T09:14:51;12.38;;;4.10;;
52180;SDS011;38158;53.338;6.514;2023-10-13T09:17:28;8.65;;;4.07;;
52180;SDS011;38158;53.338;6.514;2023-10-13T09:20:08;9.60;;;4.35;;
52180;SDS011;38158;53.338;6.514;2023-10-13T09:22:57;10.32;;;4.45;;
52180;SDS011;38158;53.338;6.514;2023-10-13T09:25:27;13.52;;;4.70;;
52180;SDS011;38158;53.338;6.514;2023-10-13T09:27:59;13.02;;;4.53;;
52180;SDS011;38158;53.338;6.514;2023-10-13T09:30:28;11.27;;;4.68;;
52180;SDS011;38158;53.338;6.514;2023-10-13T09:33:03;10.07;;;4.72;;
52180;SDS011;38158;53.338;6.514;2023-10-13T09:35:30;11.25;;;4.43;;
52180;SDS011;38158;53.338;6.514;2023-10-13T09:37:59;13.65;;;5.15;;
52180;SDS011;38158;53.338;6.514;2023-10-13T09:40:27;10.32;;;4.60;;
52180;SDS011;38158;53.338;6.514;2023-10-13T09:43:11;13.65;;;4.28;;
52180;SDS011;38158;53.338;6.514;2023-10-13T09:45:40;7.38;;;4.32;;
52180;SDS011;38158;53.338;6.514;2023-10-13T09:51:04;12.23;;;4.40;;
52180;SDS011;38158;53.338;6.514;2023-10-13T09:53:35;11.25;;;4.55;;
52180;SDS011;38158;53.338;6.514;2023-10-13T09:56:21;10.50;;;4.10;;
52180;SDS011;38158;53.338;6.514;2023-10-13T09:58:55;13.37;;;4.90;;
52180;SDS011;38158;53.338;6.514;2023-10-13T10:01:27;10.45;;;4.35;;
52180;SDS011;38158;53.338;6.514;2023-10-13T10:04:06;13.70;;;4.30;;
52180;SDS011;38158;53.338;6.514;2023-10-13T10:06:34;11.38;;;4.53;;
52180;SDS011;38158;53.338;6.514;2023-10-13T10:09:11;15.00;;;4.80;;
52180;SDS011;38158;53.338;6.514;2023-10-13T10:11:46;10.10;;;4.30;;
52180;SDS011;38158;53.338;6.514;2023-10-13T10:17:26;10.80;;;3.92;;
52180;SDS011;38158;53.338;6.514;2023-10-13T10:19:55;13.00;;;4.45;;
52180;SDS011;38158;53.338;6.514;2023-10-13T10:22:30;11.85;;;4.88;;
52180;SDS011;38158;53.338;6.514;2023-10-13T10:25:09;10.88;;;4.70;;
52180;SDS011;38158;53.338;6.514;2023-10-13T10:27:59;13.98;;;3.65;;
52180;SDS011;38158;53.338;6.514;2023-10-13T10:30:38;13.65;;;3.58;;
52180;SDS011;38158;53.338;6.514;2023-10-13T10:33:04;15.07;;;4.68;;
52180;SDS011;38158;53.338;6.514;2023-10-13T10:35:44;8.80;;;3.92;;
52180;SDS011;38158;53.338;6.514;2023-10-13T10:38:11;9.80;;;3.92;;
52180;SDS011;38158;53.338;6.514;2023-10-13T10:40:52;9.88;;;3.22;;
52180;SDS011;38158;53.338;6.514;2023-10-13T10:43:23;10.60;;;4.07;;
52180;SDS011;38158;53.338;6.514;2023-10-13T10:46:19;9.48;;;4.00;;
52180;SDS011;38158;53.338;6.514;2023-10-13T10:48:52;12.57;;;4.82;;
52180;SDS011;38158;53.338;6.514;2023-10-13T10:51:26;11.35;;;4.25;;
52180;SDS011;38158;53.338;6.514;2023-10-13T10:53:59;19.48;;;4.20;;
52180;SDS011;38158;53.338;6.514;2023-10-13T10:56:37;12.65;;;4.53;;
52180;SDS011;38158;53.338;6.514;2023-10-13T10:59:04;11.48;;;4.57;;
52180;SDS011;38158;53.338;6.514;2023-10-13T11:01:43;10.52;;;3.70;;
52180;SDS011;38158;53.338;6.514;2023-10-13T11:04:13;20.20;;;3.90;;
52180;SDS011;38158;53.338;6.514;2023-10-13T11:09:24;16.20;;;4.35;;
52180;SDS011;38158;53.338;6.514;2023-10-13T11:11:56;10.65;;;3.72;;
52180;SDS011;38158;53.338;6.514;2023-10-13T11:14:27;13.15;;;3.95;;
52180;SDS011;38158;53.338;6.514;2023-10-13T11:16:54;12.45;;;4.07;;
52180;SDS011;38158;53.338;6.514;2023-10-13T11:19:41;12.32;;;3.95;;
52180;SDS011;38158;53.338;6.514;2023-10-13T11:24:40;15.88;;;4.10;;
52180;SDS011;38158;53.338;6.514;2023-10-13T11:27:16;13.55;;;4.10;;
52180;SDS011;38158;53.338;6.514;2023-10-13T11:29:46;12.77;;;4.20;;
52180;SDS011;38158;53.338;6.514;2023-10-13T11:32:17;10.70;;;3.10;;
52180;SDS011;38158;53.338;6.514;2023-10-13T11:34:46;8.27;;;4.00;;
52180;SDS011;38158;53.338;6.514;2023-10-13T11:37:19;10.05;;;4.30;;
52180;SDS011;38158;53.338;6.514;2023-10-13T11:40:02;11.70;;;4.07;;
52180;SDS011;38158;53.338;6.514;2023-10-13T11:42:35;10.57;;;3.53;;
52180;SDS011;38158;53.338;6.514;2023-10-13T11:45:01;10.77;;;4.13;;
52180;SDS011;38158;53.338;6.514;2023-10-13T11:47:53;13.25;;;4.07;;
52180;SDS011;38158;53.338;6.514;2023-10-13T11:50:25;13.63;;;3.92;;
52180;SDS011;38158;53.338;6.514;2023-10-13T11:53:00;18.83;;;3.88;;
52180;SDS011;38158;53.338;6.514;2023-10-13T11:55:26;10.48;;;3.45;;
52180;SDS011;38158;53.338;6.514;2023-10-13T11:57:52;15.00;;;3.60;;
52180;SDS011;38158;53.338;6.514;2023-10-13T12:00:18;9.80;;;3.30;;
52180;SDS011;38158;53.338;6.514;2023-10-13T12:02:52;16.75;;;3.30;;
52180;SDS011;38158;53.338;6.514;2023-10-13T12:05:37;14.18;;;3.50;;
52180;SDS011;38158;53.338;6.514;2023-10-13T12:10:47;11.50;;;4.05;;
52180;SDS011;38158;53.338;6.514;2023-10-13T12:15:51;14.43;;;4.85;;
52180;SDS011;38158;53.338;6.514;2023-10-13T12:18:21;13.35;;;4.35;;
52180;SDS011;38158;53.338;6.514;2023-10-13T12:20:48;13.90;;;4.50;;
52180;SDS011;38158;53.338;6.514;2023-10-13T12:23:14;17.00;;;5.10;;
52180;SDS011;38158;53.338;6.514;2023-10-13T12:25:42;13.73;;;4.45;;
52180;SDS011;38158;53.338;6.514;2023-10-13T12:28:22;11.35;;;3.80;;
52180;SDS011;38158;53.338;6.514;2023-10-13T12:30:50;14.38;;;4.68;;
52180;SDS011;38158;53.338;6.514;2023-10-13T12:33:19;13.00;;;4.57;;
52180;SDS011;38158;53.338;6.514;2023-10-13T12:36:02;15.98;;;5.50;;
52180;SDS011;38158;53.338;6.514;2023-10-13T12:38:34;12.70;;;5.30;;
52180;SDS011;38158;53.338;6.514;2023-10-13T12:41:13;13.85;;;4.53;;
52180;SDS011;38158;53.338;6.514;2023-10-13T12:44:00;16.77;;;5.13;;
52180;SDS011;38158;53.338;6.514;2023-10-13T12:47:04;13.52;;;4.82;;
52180;SDS011;38158;53.338;6.514;2023-10-13T12:49:48;16.42;;;5.13;;
52180;SDS011;38158;53.338;6.514;2023-10-13T12:52:15;16.60;;;5.63;;
52180;SDS011;38158;53.338;6.514;2023-10-13T12:54:47;14.95;;;6.30;;
52180;SDS011;38158;53.338;6.514;2023-10-13T12:57:25;14.50;;;5.57;;
52180;SDS011;38158;53.338;6.514;2023-10-13T12:59:51;17.35;;;5.88;;
52180;SDS011;38158;53.338;6.514;2023-10-13T13:02:22;13.48;;;5.40;;
52180;SDS011;38158;53.338;6.514;2023-10-13T13:04:50;10.30;;;4.75;;
52180;SDS011;38158;53.338;6.514;2023-10-13T13:07:19;11.65;;;5.32;;
52180;SDS011;38158;53.338;6.514;2023-10-13T13:09:45;13.38;;;5.43;;
52180;SDS011;38158;53.338;6.514;2023-10-13T13:12:11;9.50;;;5.40;;
52180;SDS011;38158;53.338;6.514;2023-10-13T13:14:39;11.45;;;5.53;;
52180;SDS011;38158;53.338;6.514;2023-10-13T13:17:11;15.13;;;6.35;;
52180;SDS011;38158;53.338;6.514;2023-10-13T13:19:37;17.35;;;6.88;;
52180;SDS011;38158;53.338;6.514;2023-10-13T13:22:06;16.00;;;6.03;;
52180;SDS011;38158;53.338;6.514;2023-10-13T13:24:41;12.30;;;5.40;;
52180;SDS011;38158;53.338;6.514;2023-10-13T13:27:13;14.68;;;6.13;;
52180;SDS011;38158;53.338;6.514;2023-10-13T13:29:42;14.52;;;6.78;;
52180;SDS011;38158;53.338;6.514;2023-10-13T13:32:09;11.20;;;5.22;;
52180;SDS011;38158;53.338;6.514;2023-10-13T13:34:52;16.95;;;6.13;;
52180;SDS011;38158;53.338;6.514;2023-10-13T13:37:29;17.30;;;5.85;;
52180;SDS011;38158;53.338;6.514;2023-10-13T13:39:56;13.93;;;5.60;;
52180;SDS011;38158;53.338;6.514;2023-10-13T13:42:27;13.18;;;6.28;;
52180;SDS011;38158;53.338;6.514;2023-10-13T13:44:54;17.27;;;6.78;;
52180;SDS011;38158;53.338;6.514;2023-10-13T13:47:23;15.13;;;6.32;;
52180;SDS011;38158;53.338;6.514;2023-10-13T13:49:49;13.63;;;6.75;;
52180;SDS011;38158;53.338;6.514;2023-10-13T13:52:19;11.07;;;5.28;;
52180;SDS011;38158;53.338;6.514;2023-10-13T13:54:58;11.77;;;6.30;;
52180;SDS011;38158;53.338;6.514;2023-10-13T13:57:27;16.17;;;5.82;;
52180;SDS011;38158;53.338;6.514;2023-10-13T13:59:55;13.75;;;6.25;;
52180;SDS011;38158;53.338;6.514;2023-10-13T14:02:22;13.23;;;6.97;;
52180;SDS011;38158;53.338;6.514;2023-10-13T14:04:48;15.20;;;6.90;;
52180;SDS011;38158;53.338;6.514;2023-10-13T14:07:18;15.75;;;6.10;;
52180;SDS011;38158;53.338;6.514;2023-10-13T14:12:16;16.08;;;6.82;;
52180;SDS011;38158;53.338;6.514;2023-10-13T14:15:01;22.15;;;6.32;;
52180;SDS011;38158;53.338;6.514;2023-10-13T14:17:27;15.77;;;5.95;;
52180;SDS011;38158;53.338;6.514;2023-10-13T14:20:00;12.18;;;5.75;;
52180;SDS011;38158;53.338;6.514;2023-10-13T14:22:34;11.52;;;5.47;;
52180;SDS011;38158;53.338;6.514;2023-10-13T14:25:02;11.52;;;5.75;;
52180;SDS011;38158;53.338;6.514;2023-10-13T14:27:34;12.20;;;5.65;;
52180;SDS011;38158;53.338;6.514;2023-10-13T14:30:01;14.80;;;5.43;;
52180;SDS011;38158;53.338;6.514;2023-10-13T14:32:27;19.75;;;6.18;;
52180;SDS011;38158;53.338;6.514;2023-10-13T14:34:53;15.27;;;5.88;;
52180;SDS011;38158;53.338;6.514;2023-10-13T14:37:20;14.40;;;5.53;;
52180;SDS011;38158;53.338;6.514;2023-10-13T14:39:52;18.65;;;6.15;;
52180;SDS011;38158;53.338;6.514;2023-10-13T14:42:23;12.07;;;4.80;;
52180;SDS011;38158;53.338;6.514;2023-10-13T14:44:52;14.52;;;5.80;;
52180;SDS011;38158;53.338;6.514;2023-10-13T14:47:22;12.18;;;5.43;;
52180;SDS011;38158;53.338;6.514;2023-10-13T14:49:53;12.70;;;5.47;;
52180;SDS011;38158;53.338;6.514;2023-10-13T14:52:20;17.15;;;6.60;;
52180;SDS011;38158;53.338;6.514;2023-10-13T14:54:49;18.17;;;6.50;;
52180;SDS011;38158;53.338;6.514;2023-10-13T14:57:20;15.38;;;5.40;;
52180;SDS011;38158;53.338;6.514;2023-10-13T14:59:49;11.80;;;5.40;;
52180;SDS011;38158;53.338;6.514;2023-10-13T15:04:42;14.13;;;5.38;;
52180;SDS011;38158;53.338;6.514;2023-10-13T15:07:07;12.10;;;5.00;;
52180;SDS011;38158;53.338;6.514;2023-10-13T15:09:33;16.02;;;5.57;;
52180;SDS011;38158;53.338;6.514;2023-10-13T15:11:59;12.80;;;4.97;;
52180;SDS011;38158;53.338;6.514;2023-10-13T15:14:30;18.13;;;5.00;;
52180;SDS011;38158;53.338;6.514;2023-10-13T15:16:58;17.67;;;5.95;;
52180;SDS011;38158;53.338;6.514;2023-10-13T15:21:51;14.40;;;4.82;;
52180;SDS011;38158;53.338;6.514;2023-10-13T15:24:18;15.80;;;5.90;;
52180;SDS011;38158;53.338;6.514;2023-10-13T15:26:46;13.32;;;4.85;;
52180;SDS011;38158;53.338;6.514;2023-10-13T15:29:18;17.80;;;6.13;;
52180;SDS011;38158;53.338;6.514;2023-10-13T15:31:50;13.98;;;4.97;;
52180;SDS011;38158;53.338;6.514;2023-10-13T15:34:25;16.90;;;5.05;;
52180;SDS011;38158;53.338;6.514;2023-10-13T15:36:52;14.82;;;5.55;;
52180;SDS011;38158;53.338;6.514;2023-10-13T15:39:20;20.60;;;6.22;;
52180;SDS011;38158;53.338;6.514;2023-10-13T15:41:50;12.95;;;5.50;;
52180;SDS011;38158;53.338;6.514;2023-10-13T15:44:19;16.13;;;6.00;;
52180;SDS011;38158;53.338;6.514;2023-10-13T15:46:50;17.17;;;5.50;;
52180;SDS011;38158;53.338;6.514;2023-10-13T15:49:18;16.25;;;6.47;;
52180;SDS011;38158;53.338;6.514;2023-10-13T15:51:43;11.85;;;4.68;;
52180;SDS011;38158;53.338;6.514;2023-10-13T15:54:09;17.10;;;5.25;;
52180;SDS011;38158;53.338;6.514;2023-10-13T15:56:42;11.63;;;4.95;;
52180;SDS011;38158;53.338;6.514;2023-10-13T15:59:08;12.65;;;5.40;;
52180;SDS011;38158;53.338;6.514;2023-10-13T16:01:34;14.68;;;5.68;;
52180;SDS011;38158;53.338;6.514;2023-10-13T16:04:00;16.73;;;5.15;;